Time;durP1;ratioP1;P1;durP2;ratioP2;P2;SDS_P1;SDS_P2;PMS_P1;PMS_P2;Temp;Humidity;BMP_temperature;BMP_pressure;BME280_temperature;BME280_humidity;BME280_pressure;Samples;Min_cycle;Max_cycle;Signal;HPM_P1;HPM_P2
2023/01/14 00:01:28;;;;;;;21.80;12.18;;;28.30;91.70;;;;;;5027215;28;20303;-55
2023/01/14 00:03:55;;;;;;;28.60;12.70;;;28.30;91.70;;;;;;5009023;28;20109;-55
2023/01/14 00:06:24;;;;;;;17.85;11.52;;;28.30;91.70;;;;;;5027227;28;20018;-61
2023/01/14 00:09:05;;;;;;;18.92;11.43;;;28.30;91.70;;;;;;5026589;28;20057;-54
2023/01/14 00:14:31;;;;;;;23.25;10.95;;;28.30;91.80;;;;;;4983238;28;20060;-54
2023/01/14 00:16:59;;;;;;;18.48;11.20;;;28.30;91.80;;;;;;5027011;28;20057;-54
2023/01/14 00:19:26;;;;;;;17.52;10.48;;;28.30;92.10;;;;;;5026586;28;20147;-54
2023/01/14 00:21:57;;;;;;;17.13;9.65;;;28.30;91.80;;;;;;5026890;28;20041;-57
2023/01/14 00:24:24;;;;;;;25.73;10.23;;;28.20;91.80;;;;;;5026605;28;20034;-55
2023/01/14 00:26:53;;;;;;;15.65;10.02;;;28.30;91.80;;;;;;5026333;28;20097;-54
2023/01/14 00:29:24;;;;;;;16.27;9.73;;;28.20;91.80;;;;;;5026574;28;20068;-53
2023/01/14 00:31:53;;;;;;;13.98;8.70;;;28.20;91.90;;;;;;5026690;28;20021;-55
2023/01/14 00:34:21;;;;;;;17.45;10.65;;;28.20;91.90;;;;;;5026327;28;20034;-54
2023/01/14 00:36:47;;;;;;;19.42;11.27;;;28.20;92.00;;;;;;5025766;28;20033;-59
2023/01/14 00:39:16;;;;;;;17.75;10.32;;;28.10;91.90;;;;;;5026309;28;20026;-55
2023/01/14 00:41:42;;;;;;;17.98;10.45;;;28.10;91.90;;;;;;5026175;28;20097;-53
2023/01/14 00:44:09;;;;;;;16.20;9.50;;;28.10;92.00;;;;;;5026230;28;20025;-59
2023/01/14 00:46:37;;;;;;;16.15;9.90;;;28.10;91.90;;;;;;5026547;28;20298;-54
2023/01/14 00:49:07;;;;;;;17.88;10.20;;;28.10;91.90;;;;;;5026041;28;20036;-56
2023/01/14 00:51:34;;;;;;;13.93;9.68;;;28.10;92.00;;;;;;5026375;28;20064;-55
2023/01/14 00:54:02;;;;;;;13.40;8.88;;;28.10;91.90;;;;;;5024780;28;20044;-51
2023/01/14 00:56:29;;;;;;;20.15;9.95;;;28.10;92.00;;;;;;5017056;28;20195;-52
2023/01/14 00:58:56;;;;;;;17.40;9.75;;;28.00;92.00;;;;;;5006808;28;20036;-52
2023/01/14 01:01:22;;;;;;;15.10;9.45;;;27.90;92.00;;;;;;5006186;28;20046;-59
2023/01/14 01:03:55;;;;;;;16.00;9.57;;;27.80;92.00;;;;;;5006191;28;20246;-52
2023/01/14 01:06:24;;;;;;;15.60;9.32;;;27.80;92.10;;;;;;5005946;28;20333;-58
2023/01/14 01:08:56;;;;;;;19.40;9.60;;;27.80;92.10;;;;;;4988479;28;20050;-62
2023/01/14 01:11:24;;;;;;;13.35;8.75;;;27.70;92.30;;;;;;5005923;28;20030;-55
2023/01/14 01:13:50;;;;;;;18.50;9.98;;;27.60;92.30;;;;;;5006356;28;20026;-54
2023/01/14 01:16:23;;;;;;;16.50;9.65;;;27.60;92.40;;;;;;5011547;28;20380;-63
2023/01/14 01:18:52;;;;;;;17.23;9.25;;;27.50;92.50;;;;;;5025912;28;20030;-53
2023/01/14 01:21:20;;;;;;;16.45;9.50;;;27.50;92.70;;;;;;5022014;28;20207;-54
2023/01/14 01:23:48;;;;;;;17.23;10.30;;;27.40;92.70;;;;;;5013559;28;20348;-57
2023/01/14 01:26:24;;;;;;;17.40;9.55;;;27.40;92.70;;;;;;5008670;28;20053;-53
2023/01/14 01:28:53;;;;;;;15.88;9.40;;;27.30;92.80;;;;;;5006096;28;20030;-52
2023/01/14 01:31:21;;;;;;;14.10;8.60;;;27.30;92.80;;;;;;5005621;28;20065;-61
2023/01/14 01:33:48;;;;;;;13.68;9.15;;;27.30;92.80;;;;;;5005953;28;20030;-63
2023/01/14 01:36:18;;;;;;;15.05;8.30;;;27.30;92.80;;;;;;5006388;28;20049;-56
2023/01/14 01:38:46;;;;;;;16.88;8.75;;;27.30;92.80;;;;;;4988506;28;20093;-53
2023/01/14 01:41:19;;;;;;;12.98;8.88;;;27.30;92.80;;;;;;4988003;28;20335;-52
2023/01/14 01:44:16;;;;;;;14.40;8.40;;;27.20;92.80;;;;;;5003934;28;20195;-52
2023/01/14 01:46:43;;;;;;;15.43;8.27;;;27.20;92.80;;;;;;4988041;28;20041;-55
2023/01/14 01:49:30;;;;;;;15.30;8.68;;;27.10;92.70;;;;;;5004976;28;20072;-55
2023/01/14 01:52:08;;;;;;;19.40;9.15;;;27.10;92.70;;;;;;5005264;28;20030;-56
2023/01/14 01:54:56;;;;;;;45.65;12.10;;;27.10;92.70;;;;;;5005191;28;20026;-52
2023/01/14 01:57:24;;;;;;;29.73;10.77;;;27.10;92.70;;;;;;5023626;28;20034;-52
2023/01/14 01:59:55;;;;;;;29.02;9.48;;;27.10;92.80;;;;;;5024832;28;20103;-54
2023/01/14 02:02:23;;;;;;;42.33;10.93;;;27.00;92.80;;;;;;5006808;28;20049;-54
2023/01/14 02:04:50;;;;;;;28.52;9.73;;;27.00;92.80;;;;;;5022729;28;20030;-51
2023/01/14 02:07:23;;;;;;;19.02;8.82;;;27.00;92.60;;;;;;5006895;28;20060;-52
2023/01/14 02:10:01;;;;;;;18.15;8.73;;;27.00;92.60;;;;;;5024707;28;20022;-54
2023/01/14 02:12:50;;;;;;;17.92;9.07;;;27.00;92.60;;;;;;5025549;28;20034;-54
2023/01/14 02:15:46;;;;;;;16.77;7.95;;;27.00;92.70;;;;;;5025197;28;20029;-54
2023/01/14 02:18:37;;;;;;;13.93;8.63;;;26.90;92.50;;;;;;4980154;28;20032;-56
2023/01/14 02:21:15;;;;;;;18.13;7.88;;;26.90;92.50;;;;;;5024484;28;20108;-57
2023/01/14 02:23:51;;;;;;;16.83;8.38;;;26.90;92.50;;;;;;5023872;28;20030;-51
2023/01/14 02:26:29;;;;;;;14.00;8.48;;;26.90;92.50;;;;;;5024452;28;20048;-56
2023/01/14 02:29:27;;;;;;;18.42;8.90;;;27.10;92.40;;;;;;5024685;28;20022;-50
2023/01/14 02:32:02;;;;;;;12.85;8.35;;;27.20;92.30;;;;;;5023731;28;20214;-50
2023/01/14 02:34:56;;;;;;;15.98;8.30;;;27.20;92.10;;;;;;5023250;28;20022;-54
2023/01/14 02:37:28;;;;;;;14.45;7.88;;;27.20;92.00;;;;;;5023068;28;20053;-55
2023/01/14 02:40:07;;;;;;;12.75;8.05;;;27.30;92.00;;;;;;5023085;28;20270;-53
2023/01/14 02:46:38;;;;;;;13.45;8.02;;;27.30;91.80;;;;;;5023684;28;20064;-56
2023/01/14 02:49:07;;;;;;;13.15;8.10;;;27.30;91.70;;;;;;5024032;28;20032;-60
2023/01/14 02:51:34;;;;;;;11.30;7.78;;;27.30;91.70;;;;;;5024483;28;20202;-57
2023/01/14 02:54:01;;;;;;;13.88;8.25;;;27.30;91.70;;;;;;5024126;28;20032;-57
2023/01/14 02:56:28;;;;;;;12.07;7.60;;;27.30;91.70;;;;;;5024017;28;20030;-53
2023/01/14 02:59:25;;;;;;;15.70;8.07;;;27.30;91.60;;;;;;5024456;28;20026;-55
2023/01/14 03:02:13;;;;;;;16.55;7.95;;;27.30;91.60;;;;;;5027142;28;20030;-55
2023/01/14 03:05:22;;;;;;;15.80;7.93;;;27.30;91.60;;;;;;5028129;28;20021;-56
2023/01/14 03:08:02;;;;;;;11.80;8.38;;;27.30;91.60;;;;;;5027972;28;20113;-53
2023/01/14 03:10:52;;;;;;;17.33;8.45;;;27.30;91.60;;;;;;5027955;28;20021;-55
2023/01/14 03:13:35;;;;;;;13.23;8.38;;;27.30;91.60;;;;;;5027494;28;20234;-56
2023/01/14 03:16:11;;;;;;;;;;;27.30;91.60;;;;;;5028142;28;20030;-54
2023/01/14 03:18:43;;;;;;;14.02;7.25;;;27.30;91.60;;;;;;5027996;28;19911;-55
2023/01/14 03:21:53;;;;;;;12.52;8.00;;;27.10;91.70;;;;;;5027649;28;20261;-56
2023/01/14 03:24:35;;;;;;;19.10;8.48;;;27.10;91.80;;;;;;5019028;28;20050;-55
2023/01/14 03:27:18;;;;;;;15.70;8.52;;;27.20;91.80;;;;;;5014131;28;20030;-50
2023/01/14 03:29:49;;;;;;;12.55;8.63;;;27.20;91.80;;;;;;5016486;28;20218;-56
2023/01/14 03:32:25;;;;;;;13.55;8.52;;;27.20;91.60;;;;;;5022020;28;20026;-58
2023/01/14 03:35:00;;;;;;;15.50;8.25;;;27.30;91.60;;;;;;5027835;28;20036;-57
2023/01/14 03:40:39;;;;;;;13.07;8.55;;;27.30;91.60;;;;;;5013934;28;20041;-55
2023/01/14 03:43:21;;;;;;;13.95;8.95;;;27.30;91.60;;;;;;5027571;28;20041;-56
2023/01/14 03:45:49;;;;;;;;;;;27.30;91.60;;;;;;5027728;28;20029;-53
2023/01/14 03:48:16;;;;;;;16.95;9.25;;;27.30;91.60;;;;;;5013573;28;19912;-65
2023/01/14 03:51:06;;;;;;;16.77;8.82;;;27.20;91.70;;;;;;5016056;28;20064;-53
2023/01/14 03:53:48;;;;;;;15.20;8.07;;;27.20;91.70;;;;;;4997455;28;20053;-55
2023/01/14 03:56:41;;;;;;;13.30;7.80;;;27.20;91.70;;;;;;5020478;28;20028;-55
2023/01/14 03:59:17;;;;;;;15.65;8.88;;;27.30;91.70;;;;;;5009761;28;20381;-54
2023/01/14 04:01:50;;;;;;;17.27;8.65;;;27.20;91.60;;;;;;5007180;28;20022;-55
2023/01/14 04:04:17;;;;;;;15.32;8.20;;;27.20;91.60;;;;;;5018456;28;20037;-56
2023/01/14 04:06:44;;;;;;;14.65;8.40;;;27.20;91.60;;;;;;5009811;28;20033;-56
2023/01/14 04:09:11;;;;;;;14.32;7.68;;;27.20;91.50;;;;;;5015545;28;20087;-57
2023/01/14 04:11:39;;;;;;;14.15;8.15;;;27.20;91.50;;;;;;5007247;28;20302;-59
2023/01/14 04:16:50;;;;;;;13.43;7.90;;;27.20;91.60;;;;;;5007282;28;20030;-55
2023/01/14 04:19:17;;;;;;;11.35;8.00;;;27.20;91.60;;;;;;5006967;28;20030;-57
2023/01/14 04:21:43;;;;;;;12.98;8.10;;;27.20;91.50;;;;;;5005856;28;20040;-56
2023/01/14 04:24:13;;;;;;;14.02;8.13;;;27.20;91.40;;;;;;5007200;28;20049;-63
2023/01/14 04:26:40;;;;;;;12.57;7.50;;;27.20;91.40;;;;;;4989817;28;20022;-54
2023/01/14 04:29:07;;;;;;;13.35;7.43;;;27.20;91.40;;;;;;5008340;28;20080;-53
2023/01/14 04:31:33;;;;;;;15.10;7.78;;;27.20;91.30;;;;;;5016059;28;20019;-56
2023/01/14 04:34:00;;;;;;;14.75;7.70;;;27.20;91.30;;;;;;5010146;28;20038;-55
2023/01/14 04:36:27;;;;;;;14.55;7.55;;;27.20;91.20;;;;;;5017116;28;20053;-54
2023/01/14 04:38:53;;;;;;;12.13;8.02;;;27.20;91.20;;;;;;5014014;28;20029;-53
2023/01/14 04:44:05;;;;;;;16.73;8.27;;;27.20;91.10;;;;;;5016949;28;20405;-58
2023/01/14 04:46:32;;;;;;;14.13;7.68;;;27.20;91.10;;;;;;5015544;28;20318;-58
2023/01/14 04:48:58;;;;;;;12.30;7.35;;;27.20;91.10;;;;;;5017931;28;20037;-55
2023/01/14 04:51:25;;;;;;;13.73;7.55;;;27.20;91.10;;;;;;5009573;28;20028;-56
2023/01/14 04:53:52;;;;;;;14.65;7.32;;;27.20;91.20;;;;;;5006439;28;20033;-56
2023/01/14 04:56:18;;;;;;;12.43;7.65;;;27.20;91.50;;;;;;5006146;28;20032;-53
2023/01/14 04:58:47;;;;;;;11.80;6.95;;;27.30;91.20;;;;;;5006296;28;20042;-53
2023/01/14 05:01:13;;;;;;;14.82;8.00;;;27.30;91.30;;;;;;5010539;28;20026;-54
2023/01/14 05:03:40;;;;;;;12.45;7.85;;;27.30;91.30;;;;;;5017056;28;20225;-53
2023/01/14 05:06:07;;;;;;;11.20;7.65;;;27.30;91.30;;;;;;5025644;28;20061;-56
2023/01/14 05:08:34;;;;;;;12.63;7.85;;;27.30;91.10;;;;;;5025476;28;20088;-53
2023/01/14 05:11:00;;;;;;;13.02;7.82;;;27.30;91.10;;;;;;5025678;28;20047;-54
2023/01/14 05:13:27;;;;;;;14.68;8.25;;;27.30;91.10;;;;;;5025329;28;20054;-58
2023/01/14 05:16:02;;;;;;;13.00;8.00;;;27.30;91.20;;;;;;5025517;28;20068;-55
2023/01/14 05:18:29;;;;;;;14.88;7.45;;;27.30;91.20;;;;;;5019513;28;20037;-54
2023/01/14 05:20:55;;;;;;;13.95;7.55;;;27.30;91.10;;;;;;5010400;28;20133;-56
2023/01/14 05:23:22;;;;;;;13.40;7.50;;;27.30;91.10;;;;;;5006014;28;20026;-55
2023/01/14 05:25:50;;;;;;;11.27;7.47;;;27.40;91.20;;;;;;5006025;28;20038;-55
2023/01/14 05:28:19;;;;;;;15.18;7.65;;;27.40;91.20;;;;;;5006539;28;20022;-56
2023/01/14 05:30:46;;;;;;;12.82;7.82;;;27.30;91.00;;;;;;5005971;28;20041;-56
2023/01/14 05:33:13;;;;;;;12.85;7.40;;;27.40;91.10;;;;;;5011996;28;20034;-54
2023/01/14 05:35:40;;;;;;;12.27;7.80;;;27.40;91.00;;;;;;5021666;28;20025;-55
2023/01/14 05:38:08;;;;;;;15.07;7.38;;;27.30;90.90;;;;;;5025896;28;20033;-52
2023/01/14 05:40:36;;;;;;;12.65;7.75;;;27.30;91.00;;;;;;5025774;28;20032;-56
2023/01/14 05:45:48;;;;;;;12.07;7.28;;;27.30;90.90;;;;;;5025554;28;20207;-54
2023/01/14 05:48:17;;;;;;;12.05;7.60;;;27.30;90.90;;;;;;5025780;28;20056;-55
2023/01/14 05:50:44;;;;;;;10.93;7.53;;;27.30;90.80;;;;;;5025219;28;20034;-56
2023/01/14 05:53:11;;;;;;;13.63;7.20;;;27.30;90.80;;;;;;5025583;28;20091;-55
2023/01/14 05:55:38;;;;;;;11.40;7.72;;;27.30;90.90;;;;;;5025600;28;20093;-53
2023/01/14 05:58:06;;;;;;;14.40;7.55;;;27.30;90.70;;;;;;5025632;28;20298;-61
2023/01/14 06:06:21;;;;;;;13.05;6.88;;;27.20;90.70;;;;;;5025457;28;20277;-54
2023/01/14 06:08:56;;;;;;;13.18;6.85;;;27.20;90.90;;;;;;5019474;28;20226;-56
2023/01/14 06:11:24;;;;;;;8.40;6.38;;;27.20;90.70;;;;;;5005762;28;20034;-56
2023/01/14 06:13:54;;;;;;;11.85;6.75;;;27.20;90.70;;;;;;5005142;28;20037;-56
2023/01/14 06:16:21;;;;;;;14.23;6.60;;;27.20;90.60;;;;;;5005471;28;20030;-55
2023/01/14 06:18:48;;;;;;;9.38;6.43;;;27.20;90.60;;;;;;5005382;28;20182;-53
2023/01/14 06:21:17;;;;;;;12.73;6.68;;;27.20;90.60;;;;;;5015983;28;20244;-64
2023/01/14 06:23:44;;;;;;;9.52;6.78;;;27.20;90.50;;;;;;5004457;28;20044;-55
2023/01/14 06:26:20;;;;;;;10.07;6.20;;;27.20;90.60;;;;;;5004624;28;20311;-56
2023/01/14 06:28:46;;;;;;;10.30;6.60;;;27.10;90.40;;;;;;5004744;28;20034;-55
2023/01/14 06:31:15;;;;;;;9.68;6.65;;;27.10;90.50;;;;;;5004382;28;20049;-55
2023/01/14 06:33:43;;;;;;;10.10;6.68;;;27.10;90.40;;;;;;5004959;28;20034;-56
2023/01/14 06:36:11;;;;;;;10.77;5.97;;;27.10;90.50;;;;;;5003770;28;20019;-56
2023/01/14 06:38:38;;;;;;;13.75;6.97;;;27.20;90.40;;;;;;5004417;28;20279;-56
2023/01/14 06:41:06;;;;;;;10.68;6.28;;;27.10;90.40;;;;;;5004452;28;20030;-55
2023/01/14 06:43:34;;;;;;;12.75;7.13;;;27.10;90.40;;;;;;5004500;28;20101;-55
2023/01/14 06:46:01;;;;;;;11.13;6.45;;;27.10;90.40;;;;;;5004407;28;20023;-57
2023/01/14 06:48:28;;;;;;;9.45;6.35;;;27.10;90.30;;;;;;5004528;28;20037;-55
2023/01/14 06:50:55;;;;;;;11.07;6.53;;;27.10;90.20;;;;;;5004825;28;20060;-56
2023/01/14 06:53:23;;;;;;;10.75;6.13;;;27.10;90.40;;;;;;5004655;28;20026;-57
2023/01/14 06:55:50;;;;;;;11.32;6.38;;;27.10;90.30;;;;;;5004389;28;20034;-57
2023/01/14 06:58:16;;;;;;;13.52;6.63;;;27.10;90.30;;;;;;5004974;28;20041;-58
2023/01/14 07:00:43;;;;;;;8.63;5.88;;;27.10;90.30;;;;;;5004104;28;20338;-56
2023/01/14 07:03:10;;;;;;;9.70;6.30;;;27.10;90.40;;;;;;5009220;28;20106;-57
2023/01/14 07:05:36;;;;;;;9.98;6.30;;;27.10;90.30;;;;;;5000119;28;20022;-58
2023/01/14 07:08:03;;;;;;;9.38;6.40;;;27.10;90.30;;;;;;5015602;28;20046;-55
2023/01/14 07:10:30;;;;;;;10.95;6.43;;;27.10;90.30;;;;;;5013620;28;20037;-57
2023/01/14 07:12:56;;;;;;;8.40;6.43;;;27.10;90.40;;;;;;5012668;28;20026;-59
2023/01/14 07:15:23;;;;;;;8.05;5.65;;;27.00;90.30;;;;;;5019301;28;20088;-59
2023/01/14 07:17:50;;;;;;;10.38;6.38;;;27.00;90.40;;;;;;5016374;28;20026;-58
2023/01/14 07:20:17;;;;;;;10.20;6.20;;;27.00;90.40;;;;;;5014398;28;20214;-56
2023/01/14 07:22:44;;;;;;;10.30;6.30;;;27.00;90.40;;;;;;5013914;28;20273;-56
2023/01/14 07:25:10;;;;;;;8.95;6.50;;;27.00;90.40;;;;;;5013698;28;20234;-58
2023/01/14 07:27:37;;;;;;;10.98;6.47;;;27.00;90.50;;;;;;5012487;28;20026;-57
2023/01/14 07:30:04;;;;;;;11.98;6.63;;;27.00;90.50;;;;;;5013670;28;20034;-57
2023/01/14 07:32:34;;;;;;;10.60;6.30;;;27.00;90.50;;;;;;5013663;28;20211;-57
2023/01/14 07:35:01;;;;;;;9.98;6.13;;;27.00;90.70;;;;;;5012149;28;20030;-55
2023/01/14 07:37:27;;;;;;;10.73;7.10;;;27.00;90.50;;;;;;5013272;28;20025;-60
2023/01/14 07:39:54;;;;;;;9.27;6.20;;;27.00;90.60;;;;;;5013981;28;20243;-57
2023/01/14 07:42:21;;;;;;;10.80;6.15;;;27.00;90.70;;;;;;5014561;28;20030;-57
2023/01/14 07:44:48;;;;;;;12.88;6.60;;;27.00;90.60;;;;;;5013053;28;20085;-59
2023/01/14 07:47:16;;;;;;;9.80;6.35;;;27.00;90.50;;;;;;5016056;28;20026;-59
2023/01/14 07:49:43;;;;;;;11.18;6.53;;;27.00;90.60;;;;;;5007621;28;20018;-58
2023/01/14 07:52:13;;;;;;;11.15;6.53;;;27.00;90.60;;;;;;5007408;28;20052;-58
2023/01/14 07:54:43;;;;;;;12.48;6.75;;;27.00;90.50;;;;;;5007689;28;20282;-59
2023/01/14 07:57:10;;;;;;;12.65;6.30;;;27.00;90.50;;;;;;5021432;28;20428;-60
2023/01/14 07:59:38;;;;;;;10.68;6.72;;;27.00;90.50;;;;;;5027060;28;20033;-59
2023/01/14 08:02:08;;;;;;;9.02;6.25;;;27.00;90.50;;;;;;5027205;28;20014;-59
2023/01/14 08:04:35;;;;;;;12.35;6.70;;;27.00;90.70;;;;;;5015339;28;20049;-60
2023/01/14 08:07:04;;;;;;;11.57;6.13;;;27.00;90.70;;;;;;5026738;28;20028;-59
2023/01/14 08:09:31;;;;;;;13.13;6.93;;;27.00;90.60;;;;;;5026302;28;20333;-57
2023/01/14 08:11:58;;;;;;;9.38;6.13;;;27.00;90.70;;;;;;5019309;28;20029;-59
2023/01/14 08:14:24;;;;;;;11.73;7.18;;;27.00;90.70;;;;;;5011424;28;20369;-57
2023/01/14 08:16:51;;;;;;;11.35;6.63;;;27.00;90.80;;;;;;5021321;28;20053;-58
2023/01/14 08:19:18;;;;;;;9.48;6.55;;;27.00;90.80;;;;;;5026561;28;20214;-57
2023/01/14 08:21:46;;;;;;;14.88;6.95;;;27.00;90.90;;;;;;5026937;28;20026;-59
2023/01/14 08:24:12;;;;;;;11.02;6.68;;;27.00;90.80;;;;;;5026410;28;20151;-60
2023/01/14 08:26:39;;;;;;;10.15;6.50;;;27.00;90.80;;;;;;5026549;28;20227;-58
2023/01/14 08:29:06;;;;;;;8.88;6.63;;;27.00;90.70;;;;;;5018951;28;20034;-57
2023/01/14 08:31:32;;;;;;;10.35;6.28;;;27.00;90.60;;;;;;5013889;28;20026;-58
2023/01/14 08:34:00;;;;;;;11.85;6.28;;;27.00;90.60;;;;;;5009920;28;20038;-57
2023/01/14 08:36:26;;;;;;;10.68;6.38;;;27.00;90.60;;;;;;5026054;28;20100;-58
2023/01/14 08:38:53;;;;;;;8.23;5.82;;;27.00;90.40;;;;;;5026418;28;20030;-59
2023/01/14 08:41:20;;;;;;;7.82;6.00;;;27.00;90.20;;;;;;5017530;28;20102;-58
2023/01/14 08:43:49;;;;;;;9.63;5.78;;;27.00;90.10;;;;;;5006625;28;20030;-57
2023/01/14 08:46:15;;;;;;;9.35;5.57;;;26.90;89.80;;;;;;5007719;28;20322;-59
2023/01/14 08:48:42;;;;;;;8.82;6.05;;;27.00;90.00;;;;;;5006475;28;20026;-56
2023/01/14 08:51:13;;;;;;;7.15;5.10;;;26.90;89.70;;;;;;5006357;28;20014;-58
2023/01/14 08:53:40;;;;;;;7.60;5.30;;;26.90;89.90;;;;;;5006723;28;20433;-60
2023/01/14 08:56:11;;;;;;;8.93;5.93;;;26.90;89.90;;;;;;5017442;28;20266;-60
2023/01/14 08:58:38;;;;;;;9.90;5.78;;;26.90;89.80;;;;;;5025323;28;20042;-61
2023/01/14 09:01:07;;;;;;;10.15;6.30;;;26.90;90.00;;;;;;5025831;28;20038;-57
2023/01/14 09:03:35;;;;;;;10.27;6.13;;;26.90;90.10;;;;;;5025744;28;20041;-58
2023/01/14 09:06:10;;;;;;;11.20;5.90;;;26.90;90.30;;;;;;5026178;28;20368;-56
2023/01/14 09:17:09;;;;;;;11.70;6.68;;;26.90;90.50;;;;;;5025633;28;20245;-58
2023/01/14 09:19:56;;;;;;;9.95;5.68;;;26.90;90.50;;;;;;5025475;28;20034;-57
2023/01/14 09:22:26;;;;;;;9.23;6.20;;;26.90;90.50;;;;;;5025546;28;20041;-56
2023/01/14 09:24:53;;;;;;;8.63;5.82;;;26.80;90.60;;;;;;5025696;28;20037;-62
2023/01/14 09:27:22;;;;;;;9.55;5.82;;;26.80;90.60;;;;;;5025899;28;20060;-55
2023/01/14 09:29:49;;;;;;;13.07;6.53;;;26.80;90.50;;;;;;5025257;28;20045;-63
2023/01/14 09:32:17;;;;;;;9.27;5.90;;;26.80;90.40;;;;;;5025574;28;20029;-56
2023/01/14 09:34:49;;;;;;;8.77;5.85;;;26.80;90.40;;;;;;5025165;28;20033;-56
2023/01/14 09:37:19;;;;;;;10.05;5.85;;;26.70;90.40;;;;;;5026056;28;20030;-55
2023/01/14 09:39:52;;;;;;;11.98;6.22;;;26.70;90.20;;;;;;5025304;28;20037;-55
2023/01/14 09:42:44;;;;;;;9.93;5.43;;;26.70;90.20;;;;;;5025333;28;20328;-55
2023/01/14 09:45:15;;;;;;;12.13;5.93;;;26.70;90.10;;;;;;5025065;28;20048;-56
2023/01/14 09:47:43;;;;;;;8.65;5.60;;;26.70;90.10;;;;;;5025493;28;20030;-63
2023/01/14 09:50:29;;;;;;;8.63;5.47;;;26.70;89.60;;;;;;5017608;28;20033;-60
2023/01/14 09:53:11;;;;;;;11.93;5.45;;;26.70;89.40;;;;;;5021016;28;20026;-55
2023/01/14 09:55:48;;;;;;;6.05;4.95;;;26.70;89.30;;;;;;4996231;28;20207;-55
2023/01/14 09:58:36;;;;;;;9.50;5.05;;;26.70;89.50;;;;;;5014721;28;20036;-58
2023/01/14 10:01:22;;;;;;;9.80;5.38;;;26.70;89.10;;;;;;5023744;28;20293;-53
2023/01/14 10:03:55;;;;;;;8.93;4.95;;;26.70;88.80;;;;;;5005022;28;20034;-55
2023/01/14 10:06:22;;;;;;;6.30;5.20;;;26.60;88.70;;;;;;5005056;28;20030;-54
2023/01/14 10:09:05;;;;;;;8.15;5.00;;;26.70;88.40;;;;;;5008721;28;20233;-54
2023/01/14 10:11:42;;;;;;;8.40;4.70;;;26.70;88.70;;;;;;5018590;28;20085;-55
2023/01/14 10:14:40;;;;;;;7.22;4.97;;;26.70;88.20;;;;;;5024494;28;20025;-53
2023/01/14 10:17:12;;;;;;;8.48;5.35;;;26.70;88.20;;;;;;5024244;28;20045;-56
2023/01/14 10:19:47;;;;;;;9.43;4.72;;;26.60;87.90;;;;;;5024721;28;20025;-57
2023/01/14 10:22:39;;;;;;;10.05;5.05;;;26.60;88.60;;;;;;5014705;28;20132;-57
2023/01/14 10:25:19;;;;;;;7.90;5.05;;;26.60;88.30;;;;;;5015393;28;20322;-57
2023/01/14 10:27:53;;;;;;;9.45;5.00;;;26.60;88.50;;;;;;5013150;28;20049;-56
2023/01/14 10:30:27;;;;;;;9.32;5.18;;;26.60;88.80;;;;;;5004706;28;20340;-55
2023/01/14 10:32:56;;;;;;;8.95;4.93;;;26.60;88.90;;;;;;5010475;28;20328;-56
2023/01/14 10:36:02;;;;;;;12.35;5.28;;;26.60;88.80;;;;;;5024283;28;20101;-56
2023/01/14 10:38:30;;;;;;;10.43;5.40;;;26.60;89.00;;;;;;5023657;28;20073;-60
2023/01/14 10:41:00;;;;;;;10.90;5.57;;;26.60;89.20;;;;;;5024214;28;20037;-56
2023/01/14 10:43:39;;;;;;;9.63;5.20;;;26.60;89.10;;;;;;5013013;28;20030;-56
2023/01/14 10:46:06;;;;;;;8.60;5.53;;;26.50;89.30;;;;;;5014619;28;20225;-56
2023/01/14 10:48:50;;;;;;;10.90;5.60;;;26.60;89.40;;;;;;5016128;28;20035;-55
2023/01/14 10:51:35;;;;;;;8.77;5.15;;;26.60;89.70;;;;;;5017724;28;20277;-60
2023/01/14 10:54:14;;;;;;;9.18;5.88;;;26.60;89.70;;;;;;5016500;28;20033;-56
2023/01/14 10:56:45;;;;;;;12.32;5.55;;;26.60;89.80;;;;;;5015057;28;20068;-56
2023/01/14 10:59:28;;;;;;;12.13;6.18;;;26.60;90.00;;;;;;5023519;28;20229;-56
2023/01/14 11:01:58;;;;;;;11.23;6.05;;;26.60;89.90;;;;;;5021756;28;20030;-59
2023/01/14 11:04:31;;;;;;;11.50;6.20;;;26.60;90.20;;;;;;5023176;28;20038;-55
2023/01/14 11:06:57;;;;;;;;;;;26.60;90.00;;;;;;5021902;28;20017;-65
2023/01/14 11:09:29;;;;;;;12.48;5.78;;;26.50;90.00;;;;;;5022219;28;19913;-63
2023/01/14 11:11:57;;;;;;;10.87;5.93;;;26.60;90.10;;;;;;5023701;28;20024;-56
2023/01/14 11:14:28;;;;;;;12.65;6.22;;;26.60;90.20;;;;;;5023732;28;20037;-57
2023/01/14 11:16:55;;;;;;;10.25;5.53;;;26.60;90.10;;;;;;5024023;28;20372;-57
2023/01/14 11:19:24;;;;;;;9.90;5.88;;;26.60;90.20;;;;;;5021731;28;20034;-58
2023/01/14 11:21:56;;;;;;;14.13;5.95;;;26.60;90.20;;;;;;5025547;28;20101;-56
2023/01/14 11:24:28;;;;;;;13.30;6.03;;;26.60;90.30;;;;;;5027823;28;20049;-56
2023/01/14 11:27:12;;;;;;;9.95;6.07;;;26.60;90.30;;;;;;5027596;28;20017;-63
2023/01/14 11:29:54;;;;;;;10.48;6.13;;;26.60;90.40;;;;;;5027014;28;20076;-56
2023/01/14 11:32:24;;;;;;;8.95;5.82;;;26.60;90.40;;;;;;5027469;28;20025;-60
2023/01/14 11:35:25;;;;;;;13.80;6.32;;;26.60;90.20;;;;;;5027451;28;20026;-57
2023/01/14 11:37:56;;;;;;;12.52;5.97;;;26.60;90.20;;;;;;5028019;28;20013;-57
2023/01/14 11:43:52;;;;;;;14.65;6.80;;;26.60;90.20;;;;;;5026936;28;20068;-57
2023/01/14 11:46:19;;;;;;;11.75;6.20;;;26.60;90.30;;;;;;5027476;28;20045;-60
2023/01/14 11:49:05;;;;;;;14.65;6.70;;;26.70;90.40;;;;;;5009720;28;20033;-58
2023/01/14 11:51:32;;;;;;;12.52;6.47;;;26.60;90.30;;;;;;5027373;28;20030;-56
2023/01/14 11:54:12;;;;;;;9.85;6.05;;;26.70;90.30;;;;;;5027424;28;20336;-57
2023/01/14 11:56:40;;;;;;;12.98;6.57;;;26.70;90.20;;;;;;5027282;28;20061;-57
2023/01/14 11:59:36;;;;;;;14.60;6.60;;;26.70;90.10;;;;;;5025245;28;20026;-58
2023/01/14 12:02:08;;;;;;;9.30;5.60;;;26.70;89.90;;;;;;5007872;28;20157;-56
2023/01/14 12:05:00;;;;;;;12.13;5.43;;;26.70;90.00;;;;;;5026978;28;20022;-58
2023/01/14 12:07:57;;;;;;;10.75;5.57;;;26.70;89.90;;;;;;5007234;28;20042;-57
2023/01/14 12:10:30;;;;;;;12.55;6.20;;;26.80;90.00;;;;;;5019909;28;20026;-55
2023/01/14 12:19:49;;;;;;;12.13;6.22;;;26.80;90.20;;;;;;5026994;28;20041;-60
2023/01/14 12:22:21;;;;;;;10.77;6.28;;;26.80;90.30;;;;;;5026616;28;20030;-56
2023/01/14 12:25:16;;;;;;;9.32;5.78;;;26.80;90.20;;;;;;5026900;28;20029;-55
2023/01/14 12:28:12;;;;;;;8.60;5.55;;;26.90;90.10;;;;;;5009118;28;20377;-56
2023/01/14 12:31:16;;;;;;;6.85;5.10;;;26.90;90.00;;;;;;5021203;28;20049;-56
2023/01/14 12:34:23;;;;;;;8.02;5.18;;;26.90;89.80;;;;;;5022524;28;20201;-57
2023/01/14 12:37:14;;;;;;;10.95;5.20;;;26.90;90.00;;;;;;5007185;28;20068;-57
2023/01/14 12:45:50;;;;;;;8.45;4.97;;;27.00;89.20;;;;;;5024118;28;20040;-57
2023/01/14 12:48:23;;;;;;;9.27;5.25;;;27.00;89.10;;;;;;5023414;28;20076;-54
2023/01/14 12:50:59;;;;;;;6.45;4.55;;;27.00;88.80;;;;;;5015838;28;20095;-57
2023/01/14 12:53:52;;;;;;;12.82;5.70;;;27.00;88.90;;;;;;5023923;28;20041;-58
2023/01/14 12:57:06;;;;;;;8.63;5.82;;;27.10;89.10;;;;;;5025844;28;20034;-59
2023/01/14 13:03:49;;;;;;;10.25;6.30;;;27.10;89.00;;;;;;4935838;29;20080;-58
2023/01/14 13:06:29;;;;;;;9.02;6.18;;;27.20;89.20;;;;;;4903921;29;20043;-55
2023/01/14 13:08:59;;;;;;;8.52;5.90;;;27.20;89.00;;;;;;4965150;29;20055;-57
2023/01/14 13:11:28;;;;;;;8.30;5.53;;;27.20;89.20;;;;;;5010484;28;20072;-55
2023/01/14 13:14:02;;;;;;;11.93;5.75;;;27.30;89.20;;;;;;5025595;28;20030;-60
2023/01/14 13:16:42;;;;;;;9.63;5.50;;;27.30;89.30;;;;;;5024611;28;20265;-55
2023/01/14 13:19:26;;;;;;;7.15;5.57;;;27.30;89.50;;;;;;5005947;28;20330;-57
2023/01/14 13:22:06;;;;;;;10.70;6.18;;;27.30;89.60;;;;;;5025206;28;20072;-58
2023/01/14 13:25:03;;;;;;;9.60;5.50;;;27.30;89.70;;;;;;5025602;28;20030;-58
2023/01/14 13:27:42;;;;;;;11.35;6.43;;;27.40;90.00;;;;;;5024871;28;20033;-58
2023/01/14 13:30:18;;;;;;;7.18;5.55;;;27.40;90.00;;;;;;5022590;28;20021;-56
2023/01/14 13:33:15;;;;;;;8.55;5.93;;;27.40;90.00;;;;;;5024747;28;20336;-57
2023/01/14 13:35:43;;;;;;;9.80;6.03;;;27.40;90.00;;;;;;5025582;28;20029;-55
2023/01/14 13:38:28;;;;;;;6.95;5.82;;;27.40;90.10;;;;;;5025380;28;20091;-56
2023/01/14 13:41:06;;;;;;;9.07;6.28;;;27.50;90.20;;;;;;5025418;28;20226;-59
2023/01/14 13:43:53;;;;;;;9.85;5.95;;;27.50;90.20;;;;;;5025038;28;20377;-56
2023/01/14 13:46:45;;;;;;;9.48;5.97;;;27.50;90.20;;;;;;5024638;28;20045;-63
2023/01/14 13:49:24;;;;;;;8.97;6.50;;;27.60;90.30;;;;;;5024918;28;20030;-55
2023/01/14 13:51:56;;;;;;;12.13;6.43;;;27.60;90.30;;;;;;5024943;28;20114;-60
2023/01/14 13:54:43;;;;;;;10.70;6.03;;;27.60;90.30;;;;;;5024611;28;20041;-58
2023/01/14 13:57:29;;;;;;;8.00;6.03;;;27.70;90.30;;;;;;5025080;28;20046;-58
2023/01/14 14:00:26;;;;;;;8.82;5.70;;;27.70;90.30;;;;;;5025022;28;20055;-60
2023/01/14 14:03:16;;;;;;;11.13;6.03;;;27.70;90.30;;;;;;5024693;28;20038;-59
2023/01/14 14:05:46;;;;;;;9.10;6.20;;;27.70;90.30;;;;;;5024900;28;20026;-51